sensor_id;sensor_type;location;lat;lon;timestamp;pressure;altitude;pressure_sealevel;temperature;humidity
69630;BME280;56857;52.212;5.496;2023-07-31T00:02:06;101041.69;;;15.68;100.00
69630;BME280;56857;52.212;5.496;2023-07-31T00:04:31;101042.94;;;15.72;100.00
69630;BME280;56857;52.212;5.496;2023-07-31T00:06:57;101042.94;;;15.79;100.00
69630;BME280;56857;52.212;5.496;2023-07-31T00:09:22;101033.09;;;15.79;100.00
69630;BME280;56857;52.212;5.496;2023-07-31T00:11:47;101034.75;;;15.80;100.00
69630;BME280;56857;52.212;5.496;2023-07-31T00:14:14;101032.09;;;15.80;100.00
69630;BME280;56857;52.212;5.496;2023-07-31T00:16:39;101027.16;;;15.84;100.00
69630;BME280;56857;52.212;5.496;2023-07-31T00:19:05;101023.44;;;15.85;100.00
69630;BME280;56857;52.212;5.496;2023-07-31T00:21:30;101023.25;;;15.86;100.00
69630;BME280;56857;52.212;5.496;2023-07-31T00:23:55;101018.34;;;15.90;100.00
69630;BME280;56857;52.212;5.496;2023-07-31T00:26:20;101012.38;;;15.94;100.00
69630;BME280;56857;52.212;5.496;2023-07-31T00:28:46;101014.47;;;15.99;100.00
69630;BME280;56857;52.212;5.496;2023-07-31T00:31:11;101018.78;;;16.00;100.00
69630;BME280;56857;52.212;5.496;2023-07-31T00:33:37;101010.56;;;16.02;100.00
69630;BME280;56857;52.212;5.496;2023-07-31T00:36:03;101018.59;;;16.02;100.00
69630;BME280;56857;52.212;5.496;2023-07-31T00:38:28;101015.53;;;16.05;100.00
69630;BME280;56857;52.212;5.496;2023-07-31T00:40:53;101011.81;;;16.06;100.00
69630;BME280;56857;52.212;5.496;2023-07-31T00:43:19;101021.06;;;16.10;100.00
69630;BME280;56857;52.212;5.496;2023-07-31T00:45:44;101013.47;;;16.13;100.00
69630;BME280;56857;52.212;5.496;2023-07-31T00:48:09;101009.56;;;16.16;100.00
69630;BME280;56857;52.212;5.496;2023-07-31T00:50:35;101000.31;;;16.18;100.00
69630;BME280;56857;52.212;5.496;2023-07-31T00:53:00;100995.59;;;16.20;100.00
69630;BME280;56857;52.212;5.496;2023-07-31T00:55:26;100992.53;;;16.24;100.00
69630;BME280;56857;52.212;5.496;2023-07-31T00:57:52;101001.16;;;16.26;100.00
69630;BME280;56857;52.212;5.496;2023-07-31T01:00:17;100990.66;;;16.24;100.00
69630;BME280;56857;52.212;5.496;2023-07-31T01:02:43;100988.00;;;16.24;100.00
69630;BME280;56857;52.212;5.496;2023-07-31T01:05:08;100991.50;;;16.25;100.00
69630;BME280;56857;52.212;5.496;2023-07-31T01:07:52;100996.22;;;16.22;100.00
69630;BME280;56857;52.212;5.496;2023-07-31T01:10:27;101003.41;;;16.22;100.00
69630;BME280;56857;52.212;5.496;2023-07-31T01:12:56;100992.53;;;16.24;100.00
69630;BME280;56857;52.212;5.496;2023-07-31T01:15:22;100991.50;;;16.25;100.00
69630;BME280;56857;52.212;5.496;2023-07-31T01:17:47;100996.63;;;16.19;100.00
69630;BME280;56857;52.212;5.496;2023-07-31T01:20:17;100989.63;;;16.18;100.00
69630;BME280;56857;52.212;5.496;2023-07-31T01:23:23;101006.50;;;16.19;100.00
69630;BME280;56857;52.212;5.496;2023-07-31T01:26:13;100998.06;;;16.22;100.00
69630;BME280;56857;52.212;5.496;2023-07-31T01:31:20;101004.03;;;16.24;100.00
69630;BME280;56857;52.212;5.496;2023-07-31T01:33:46;100997.44;;;16.27;100.00
69630;BME280;56857;52.212;5.496;2023-07-31T01:36:12;100985.94;;;16.26;100.00
69630;BME280;56857;52.212;5.496;2023-07-31T01:38:37;101002.59;;;16.28;100.00
69630;BME280;56857;52.212;5.496;2023-07-31T01:41:02;100996.44;;;16.28;100.00
69630;BME280;56857;52.212;5.496;2023-07-31T01:43:28;100993.53;;;16.29;100.00
69630;BME280;56857;52.212;5.496;2023-07-31T01:45:53;100987.19;;;16.30;100.00
69630;BME280;56857;52.212;5.496;2023-07-31T01:48:18;100986.16;;;16.31;100.00
69630;BME280;56857;52.212;5.496;2023-07-31T01:50:44;100981.63;;;16.32;100.00
69630;BME280;56857;52.212;5.496;2023-07-31T01:53:09;100990.47;;;16.32;100.00
69630;BME280;56857;52.212;5.496;2023-07-31T01:55:34;100979.16;;;16.30;100.00
69630;BME280;56857;52.212;5.496;2023-07-31T01:58:00;100981.63;;;16.32;100.00
69630;BME280;56857;52.212;5.496;2023-07-31T02:00:25;100979.34;;;16.29;100.00
69630;BME280;56857;52.212;5.496;2023-07-31T02:02:50;100971.13;;;16.30;100.00
69630;BME280;56857;52.212;5.496;2023-07-31T02:05:16;100972.78;;;16.31;100.00
69630;BME280;56857;52.212;5.496;2023-07-31T02:07:41;100965.56;;;16.32;100.00
69630;BME280;56857;52.212;5.496;2023-07-31T02:10:06;100956.50;;;16.33;100.00
69630;BME280;56857;52.212;5.496;2023-07-31T02:12:32;100956.31;;;16.34;100.00
69630;BME280;56857;52.212;5.496;2023-07-31T02:14:57;100951.16;;;16.33;100.00
69630;BME280;56857;52.212;5.496;2023-07-31T02:17:22;100948.47;;;16.33;100.00
69630;BME280;56857;52.212;5.496;2023-07-31T02:19:48;100947.66;;;16.32;100.00
69630;BME280;56857;52.212;5.496;2023-07-31T02:22:13;100940.25;;;16.34;100.00
69630;BME280;56857;52.212;5.496;2023-07-31T02:24:39;100932.03;;;16.36;100.00
69630;BME280;56857;52.212;5.496;2023-07-31T02:27:04;100940.69;;;16.38;100.00
69630;BME280;56857;52.212;5.496;2023-07-31T02:29:30;100940.88;;;16.36;100.00
69630;BME280;56857;52.212;5.496;2023-07-31T02:31:55;100934.09;;;16.34;100.00
69630;BME280;56857;52.212;5.496;2023-07-31T02:34:20;100934.69;;;16.36;100.00
69630;BME280;56857;52.212;5.496;2023-07-31T02:36:46;100933.69;;;16.37;100.00
69630;BME280;56857;52.212;5.496;2023-07-31T02:39:11;100926.47;;;16.37;100.00
69630;BME280;56857;52.212;5.496;2023-07-31T02:41:36;100932.88;;;16.36;100.00
69630;BME280;56857;52.212;5.496;2023-07-31T02:44:02;100938.41;;;16.35;100.00
69630;BME280;56857;52.212;5.496;2023-07-31T02:46:27;100938.41;;;16.35;100.00
69630;BME280;56857;52.212;5.496;2023-07-31T02:48:52;100944.78;;;16.34;100.00
69630;BME280;56857;52.212;5.496;2023-07-31T02:51:18;100933.28;;;16.33;100.00
69630;BME280;56857;52.212;5.496;2023-07-31T02:53:43;100934.91;;;16.34;100.00
69630;BME280;56857;52.212;5.496;2023-07-31T02:56:08;100928.94;;;16.32;100.00
69630;BME280;56857;52.212;5.496;2023-07-31T02:58:34;100924.41;;;16.33;100.00
69630;BME280;56857;52.212;5.496;2023-07-31T03:00:59;100921.72;;;16.33;100.00
69630;BME280;56857;52.212;5.496;2023-07-31T03:03:24;100921.13;;;16.31;100.00
69630;BME280;56857;52.212;5.496;2023-07-31T03:05:49;100925.84;;;16.35;100.00
69630;BME280;56857;52.212;5.496;2023-07-31T03:08:15;100926.66;;;16.36;100.00
69630;BME280;56857;52.212;5.496;2023-07-31T03:10:40;100926.88;;;16.34;100.00
69630;BME280;56857;52.212;5.496;2023-07-31T03:13:05;100925.03;;;16.35;100.00
69630;BME280;56857;52.212;5.496;2023-07-31T03:15:31;100927.50;;;16.36;100.00
69630;BME280;56857;52.212;5.496;2023-07-31T03:17:56;100913.91;;;16.38;100.00
69630;BME280;56857;52.212;5.496;2023-07-31T03:20:21;100925.84;;;16.35;100.00
69630;BME280;56857;52.212;5.496;2023-07-31T03:22:47;100925.84;;;16.35;100.00
69630;BME280;56857;52.212;5.496;2023-07-31T03:25:12;100925.84;;;16.35;100.00
69630;BME280;56857;52.212;5.496;2023-07-31T03:27:37;100922.56;;;16.40;100.00
69630;BME280;56857;52.212;5.496;2023-07-31T03:30:03;100922.34;;;16.41;100.00
69630;BME280;56857;52.212;5.496;2023-07-31T03:32:28;100910.19;;;16.39;100.00
69630;BME280;56857;52.212;5.496;2023-07-31T03:34:54;100913.91;;;16.38;100.00
69630;BME280;56857;52.212;5.496;2023-07-31T03:37:19;100908.38;;;16.39;100.00
69630;BME280;56857;52.212;5.496;2023-07-31T03:39:44;100914.31;;;16.41;100.00
69630;BME280;56857;52.212;5.496;2023-07-31T03:42:10;100915.16;;;16.42;100.00
69630;BME280;56857;52.212;5.496;2023-07-31T03:44:35;100913.50;;;16.41;100.00
69630;BME280;56857;52.212;5.496;2023-07-31T03:47:00;100911.06;;;16.39;100.00
69630;BME280;56857;52.212;5.496;2023-07-31T03:49:26;100914.31;;;16.35;100.00
69630;BME280;56857;52.212;5.496;2023-07-31T03:51:51;100913.69;;;16.33;100.00
69630;BME280;56857;52.212;5.496;2023-07-31T03:54:16;100909.81;;;16.29;100.00
69630;BME280;56857;52.212;5.496;2023-07-31T03:56:42;100907.13;;;16.29;100.00
69630;BME280;56857;52.212;5.496;2023-07-31T03:59:07;100896.00;;;16.25;100.00
69630;BME280;56857;52.212;5.496;2023-07-31T04:01:32;100905.28;;;16.22;100.00
69630;BME280;56857;52.212;5.496;2023-07-31T04:03:57;100902.59;;;16.22;100.00
69630;BME280;56857;52.212;5.496;2023-07-31T04:06:23;100902.81;;;16.21;100.00
69630;BME280;56857;52.212;5.496;2023-07-31T04:08:48;100895.19;;;16.18;100.00
69630;BME280;56857;52.212;5.496;2023-07-31T04:11:13;100904.22;;;16.17;100.00
69630;BME280;56857;52.212;5.496;2023-07-31T04:13:39;100897.25;;;16.16;100.00
69630;BME280;56857;52.212;5.496;2023-07-31T04:16:04;100892.13;;;16.14;100.00
69630;BME280;56857;52.212;5.496;2023-07-31T04:18:29;100894.97;;;16.13;100.00
69630;BME280;56857;52.212;5.496;2023-07-31T04:20:55;100880.78;;;16.12;100.00
69630;BME280;56857;52.212;5.496;2023-07-31T04:23:20;100880.78;;;16.12;100.00
69630;BME280;56857;52.212;5.496;2023-07-31T04:25:46;100871.13;;;16.11;100.00
69630;BME280;56857;52.212;5.496;2023-07-31T04:28:11;100878.13;;;16.12;100.00
69630;BME280;56857;52.212;5.496;2023-07-31T04:30:36;100866.59;;;16.12;100.00
69630;BME280;56857;52.212;5.496;2023-07-31T04:33:01;100873.19;;;16.09;100.00
69630;BME280;56857;52.212;5.496;2023-07-31T04:35:27;100877.28;;;16.05;100.00
69630;BME280;56857;52.212;5.496;2023-07-31T04:37:52;100879.34;;;16.03;100.00
69630;BME280;56857;52.212;5.496;2023-07-31T04:40:18;100882.22;;;16.02;100.00
69630;BME280;56857;52.212;5.496;2023-07-31T04:42:43;100884.06;;;16.01;100.00
69630;BME280;56857;52.212;5.496;2023-07-31T04:45:09;100882.22;;;16.02;100.00
69630;BME280;56857;52.212;5.496;2023-07-31T04:47:34;100879.56;;;16.02;100.00
69630;BME280;56857;52.212;5.496;2023-07-31T04:50:00;100874.81;;;16.04;100.00
69630;BME280;56857;52.212;5.496;2023-07-31T04:52:25;100870.09;;;16.06;100.00
69630;BME280;56857;52.212;5.496;2023-07-31T04:54:50;100866.38;;;16.07;100.00
69630;BME280;56857;52.212;5.496;2023-07-31T04:57:15;100865.56;;;16.06;100.00
69630;BME280;56857;52.212;5.496;2023-07-31T04:59:41;100864.94;;;16.04;100.00
69630;BME280;56857;52.212;5.496;2023-07-31T05:02:08;100863.91;;;16.05;100.00
69630;BME280;56857;52.212;5.496;2023-07-31T05:04:34;100854.47;;;16.03;100.00
69630;BME280;56857;52.212;5.496;2023-07-31T05:06:59;100853.22;;;15.98;100.00
69630;BME280;56857;52.212;5.496;2023-07-31T05:09:24;100839.41;;;15.95;100.00
69630;BME280;56857;52.212;5.496;2023-07-31T05:11:49;100839.63;;;15.93;100.00
69630;BME280;56857;52.212;5.496;2023-07-31T05:14:15;100841.28;;;15.94;100.00
69630;BME280;56857;52.212;5.496;2023-07-31T05:16:40;100846.84;;;15.93;100.00
69630;BME280;56857;52.212;5.496;2023-07-31T05:19:05;100854.03;;;15.92;100.00
69630;BME280;56857;52.212;5.496;2023-07-31T05:21:31;100843.94;;;15.94;100.00
69630;BME280;56857;52.212;5.496;2023-07-31T05:23:56;100845.63;;;15.95;100.00
69630;BME280;56857;52.212;5.496;2023-07-31T05:26:21;100847.03;;;15.98;100.00
69630;BME280;56857;52.212;5.496;2023-07-31T05:28:47;100834.69;;;15.97;100.00
69630;BME280;56857;52.212;5.496;2023-07-31T05:31:12;100835.31;;;15.92;100.00
69630;BME280;56857;52.212;5.496;2023-07-31T05:33:37;100831.63;;;15.93;100.00
69630;BME280;56857;52.212;5.496;2023-07-31T05:36:03;100831.63;;;15.93;100.00
69630;BME280;56857;52.212;5.496;2023-07-31T05:38:28;100832.84;;;15.91;100.00
69630;BME280;56857;52.212;5.496;2023-07-31T05:40:53;100828.72;;;15.88;100.00
69630;BME280;56857;52.212;5.496;2023-07-31T05:43:18;100829.97;;;15.86;100.00
69630;BME280;56857;52.212;5.496;2023-07-31T05:45:44;100826.28;;;15.87;100.00
69630;BME280;56857;52.212;5.496;2023-07-31T05:48:09;100826.88;;;15.89;100.00
69630;BME280;56857;52.212;5.496;2023-07-31T05:50:34;100812.91;;;15.87;100.00
69630;BME280;56857;52.212;5.496;2023-07-31T05:52:59;100819.28;;;15.86;100.00
69630;BME280;56857;52.212;5.496;2023-07-31T05:55:25;100819.47;;;15.84;100.00
69630;BME280;56857;52.212;5.496;2023-07-31T05:57:50;100806.75;;;15.80;100.00
69630;BME280;56857;52.212;5.496;2023-07-31T06:00:16;100808.38;;;15.81;100.00
69630;BME280;56857;52.212;5.496;2023-07-31T06:02:41;100810.00;;;15.82;100.00
69630;BME280;56857;52.212;5.496;2023-07-31T06:05:06;100810.81;;;15.82;100.00
69630;BME280;56857;52.212;5.496;2023-07-31T06:07:32;100795.81;;;15.81;100.00
69630;BME280;56857;52.212;5.496;2023-07-31T06:09:57;100799.94;;;15.84;100.00
69630;BME280;56857;52.212;5.496;2023-07-31T06:12:23;100803.44;;;15.84;100.00
69630;BME280;56857;52.212;5.496;2023-07-31T06:14:48;100799.94;;;15.84;100.00
69630;BME280;56857;52.212;5.496;2023-07-31T06:17:14;100799.53;;;15.87;100.00
69630;BME280;56857;52.212;5.496;2023-07-31T06:19:39;100800.56;;;15.86;100.00
69630;BME280;56857;52.212;5.496;2023-07-31T06:22:05;100797.28;;;15.90;100.00
69630;BME280;56857;52.212;5.496;2023-07-31T06:24:30;100786.81;;;15.95;100.00
69630;BME280;56857;52.212;5.496;2023-07-31T06:26:55;100794.59;;;15.97;100.00
69630;BME280;56857;52.212;5.496;2023-07-31T06:29:21;100782.03;;;15.97;100.00
69630;BME280;56857;52.212;5.496;2023-07-31T06:31:46;100781.22;;;15.97;100.00
69630;BME280;56857;52.212;5.496;2023-07-31T06:34:11;100778.56;;;15.90;100.00
69630;BME280;56857;52.212;5.496;2023-07-31T06:36:37;100782.88;;;15.91;100.00
69630;BME280;56857;52.212;5.496;2023-07-31T06:39:02;100774.25;;;15.96;100.00
69630;BME280;56857;52.212;5.496;2023-07-31T06:41:27;100772.19;;;15.91;100.00
69630;BME280;56857;52.212;5.496;2023-07-31T06:43:53;100767.66;;;15.92;100.00
69630;BME280;56857;52.212;5.496;2023-07-31T06:46:18;100772.81;;;15.93;100.00
69630;BME280;56857;52.212;5.496;2023-07-31T06:48:43;100764.78;;;15.93;100.00
69630;BME280;56857;52.212;5.496;2023-07-31T06:51:09;100764.16;;;15.98;100.00
69630;BME280;56857;52.212;5.496;2023-07-31T06:53:34;100758.19;;;16.03;100.00
69630;BME280;56857;52.212;5.496;2023-07-31T06:55:59;100756.97;;;16.05;100.00
69630;BME280;56857;52.212;5.496;2023-07-31T06:58:24;100753.47;;;16.05;100.00
69630;BME280;56857;52.212;5.496;2023-07-31T07:00:50;100744.41;;;16.06;100.00
69630;BME280;56857;52.212;5.496;2023-07-31T07:03:18;100752.03;;;16.09;100.00
69630;BME280;56857;52.212;5.496;2023-07-31T07:05:43;100748.94;;;16.12;100.00
69630;BME280;56857;52.212;5.496;2023-07-31T07:08:08;100757.34;;;16.15;100.00
69630;BME280;56857;52.212;5.496;2023-07-31T07:10:34;100750.38;;;16.21;100.00
69630;BME280;56857;52.212;5.496;2023-07-31T07:12:59;100742.75;;;16.25;100.00
69630;BME280;56857;52.212;5.496;2023-07-31T07:15:24;100749.94;;;16.31;100.00
69630;BME280;56857;52.212;5.496;2023-07-31T07:17:50;100747.66;;;16.34;100.00
69630;BME280;56857;52.212;5.496;2023-07-31T07:20:15;100750.09;;;16.36;100.00
69630;BME280;56857;52.212;5.496;2023-07-31T07:22:40;100750.09;;;16.36;100.00
69630;BME280;56857;52.212;5.496;2023-07-31T07:25:06;100743.13;;;16.35;100.00
69630;BME280;56857;52.212;5.496;2023-07-31T07:27:31;100743.94;;;16.35;100.00
69630;BME280;56857;52.212;5.496;2023-07-31T07:29:57;100748.88;;;16.38;100.00
69630;BME280;56857;52.212;5.496;2023-07-31T07:32:22;100738.97;;;16.39;100.00
69630;BME280;56857;52.212;5.496;2023-07-31T07:34:48;100738.78;;;16.40;100.00
69630;BME280;56857;52.212;5.496;2023-07-31T07:37:13;100747.00;;;16.39;100.00
69630;BME280;56857;52.212;5.496;2023-07-31T07:39:39;100741.66;;;16.39;100.00
69630;BME280;56857;52.212;5.496;2023-07-31T07:42:04;100738.78;;;16.40;100.00
69630;BME280;56857;52.212;5.496;2023-07-31T07:44:30;100736.72;;;16.42;100.00
69630;BME280;56857;52.212;5.496;2023-07-31T07:46:55;100739.81;;;16.46;100.00
69630;BME280;56857;52.212;5.496;2023-07-31T07:49:20;100737.09;;;16.53;100.00
69630;BME280;56857;52.212;5.496;2023-07-31T07:51:47;100734.81;;;16.56;100.00
69630;BME280;56857;52.212;5.496;2023-07-31T07:54:12;100736.28;;;16.59;100.00
69630;BME280;56857;52.212;5.496;2023-07-31T07:56:38;100732.75;;;16.65;100.00
69630;BME280;56857;52.212;5.496;2023-07-31T07:59:03;100721.63;;;16.68;100.00
69630;BME280;56857;52.212;5.496;2023-07-31T08:01:28;100730.84;;;16.72;100.00
69630;BME280;56857;52.212;5.496;2023-07-31T08:03:54;100730.25;;;16.77;100.00
69630;BME280;56857;52.212;5.496;2023-07-31T08:06:19;100723.44;;;16.81;100.00
69630;BME280;56857;52.212;5.496;2023-07-31T08:08:44;100723.22;;;16.82;100.00
69630;BME280;56857;52.212;5.496;2023-07-31T08:11:10;100719.94;;;16.80;100.00
69630;BME280;56857;52.212;5.496;2023-07-31T08:13:35;100714.13;;;16.83;100.00
69630;BME280;56857;52.212;5.496;2023-07-31T08:16:00;100711.44;;;16.90;100.00
69630;BME280;56857;52.212;5.496;2023-07-31T08:18:25;100718.84;;;16.95;100.00
69630;BME280;56857;52.212;5.496;2023-07-31T08:20:51;100714.69;;;16.99;100.00
69630;BME280;56857;52.212;5.496;2023-07-31T08:23:16;100714.44;;;17.07;100.00
69630;BME280;56857;52.212;5.496;2023-07-31T08:25:42;100713.78;;;17.11;100.00
69630;BME280;56857;52.212;5.496;2023-07-31T08:28:07;100704.28;;;17.16;100.00
69630;BME280;56857;52.212;5.496;2023-07-31T08:30:33;100704.44;;;17.21;100.00
69630;BME280;56857;52.212;5.496;2023-07-31T08:32:58;100710.63;;;17.21;100.00
69630;BME280;56857;52.212;5.496;2023-07-31T08:35:24;100706.31;;;17.20;100.00
69630;BME280;56857;52.212;5.496;2023-07-31T08:37:50;100707.75;;;17.23;100.00
69630;BME280;56857;52.212;5.496;2023-07-31T08:40:16;100700.91;;;17.27;100.00
69630;BME280;56857;52.212;5.496;2023-07-31T08:42:48;100703.97;;;17.30;100.00
69630;BME280;56857;52.212;5.496;2023-07-31T08:45:15;100705.41;;;17.33;100.00
69630;BME280;56857;52.212;5.496;2023-07-31T08:47:44;100704.16;;;17.35;100.00
69630;BME280;56857;52.212;5.496;2023-07-31T08:50:12;100705.19;;;17.34;100.00
69630;BME280;56857;52.212;5.496;2023-07-31T08:52:37;100704.97;;;17.36;100.00
69630;BME280;56857;52.212;5.496;2023-07-31T08:55:03;100699.03;;;17.34;100.00
69630;BME280;56857;52.212;5.496;2023-07-31T08:57:29;100700.22;;;17.38;100.00
69630;BME280;56857;52.212;5.496;2023-07-31T08:59:55;100708.59;;;17.48;100.00
69630;BME280;56857;52.212;5.496;2023-07-31T09:02:22;100708.97;;;17.52;100.00
69630;BME280;56857;52.212;5.496;2023-07-31T09:04:48;100705.84;;;17.55;100.00
69630;BME280;56857;52.212;5.496;2023-07-31T09:07:14;100706.66;;;17.55;100.00
69630;BME280;56857;52.212;5.496;2023-07-31T09:09:40;100704.59;;;17.57;100.00
69630;BME280;56857;52.212;5.496;2023-07-31T09:12:06;100707.22;;;17.64;100.00
69630;BME280;56857;52.212;5.496;2023-07-31T09:14:32;100708.81;;;17.72;100.00
69630;BME280;56857;52.212;5.496;2023-07-31T09:16:58;100705.47;;;17.76;100.00
69630;BME280;56857;52.212;5.496;2023-07-31T09:19:29;100698.06;;;17.78;100.00
69630;BME280;56857;52.212;5.496;2023-07-31T09:21:54;100699.09;;;17.77;100.00
69630;BME280;56857;52.212;5.496;2023-07-31T09:24:31;100696.63;;;17.76;100.00
69630;BME280;56857;52.212;5.496;2023-07-31T09:26:58;100686.06;;;17.81;100.00
69630;BME280;56857;52.212;5.496;2023-07-31T09:29:24;100686.59;;;17.90;100.00
69630;BME280;56857;52.212;5.496;2023-07-31T09:31:50;100689.81;;;17.98;100.00
69630;BME280;56857;52.212;5.496;2023-07-31T09:34:16;100690.63;;;17.99;100.00
69630;BME280;56857;52.212;5.496;2023-07-31T09:36:49;100699.06;;;18.02;100.00
69630;BME280;56857;52.212;5.496;2023-07-31T09:39:16;100682.75;;;18.04;100.00
69630;BME280;56857;52.212;5.496;2023-07-31T09:41:44;100685.81;;;18.08;100.00
69630;BME280;56857;52.212;5.496;2023-07-31T09:44:10;100689.22;;;18.15;100.00
69630;BME280;56857;52.212;5.496;2023-07-31T09:46:35;100680.53;;;18.19;100.00
69630;BME280;56857;52.212;5.496;2023-07-31T09:49:08;100677.53;;;18.27;100.00
69630;BME280;56857;52.212;5.496;2023-07-31T09:51:35;100676.28;;;18.30;100.00
69630;BME280;56857;52.212;5.496;2023-07-31T09:54:00;100676.50;;;18.28;100.00
69630;BME280;56857;52.212;5.496;2023-07-31T09:56:26;100681.19;;;18.33;100.00
69630;BME280;56857;52.212;5.496;2023-07-31T09:58:52;100681.56;;;18.37;100.00
69630;BME280;56857;52.212;5.496;2023-07-31T10:01:18;100679.31;;;18.34;100.00
69630;BME280;56857;52.212;5.496;2023-07-31T10:03:45;100680.97;;;18.35;100.00
69630;BME280;56857;52.212;5.496;2023-07-31T10:06:11;100670.00;;;18.36;100.00
69630;BME280;56857;52.212;5.496;2023-07-31T10:08:38;100684.47;;;18.35;100.00
69630;BME280;56857;52.212;5.496;2023-07-31T10:11:05;100682.81;;;18.34;100.00
69630;BME280;56857;52.212;5.496;2023-07-31T10:13:34;100669.84;;;18.31;100.00
69630;BME280;56857;52.212;5.496;2023-07-31T10:16:00;100675.47;;;18.29;100.00
69630;BME280;56857;52.212;5.496;2023-07-31T10:18:26;100689.53;;;18.25;100.00
69630;BME280;56857;52.212;5.496;2023-07-31T10:20:53;100678.78;;;18.25;100.00
69630;BME280;56857;52.212;5.496;2023-07-31T10:23:19;100674.84;;;18.27;100.00
69630;BME280;56857;52.212;5.496;2023-07-31T10:25:45;100679.84;;;18.24;100.00
69630;BME280;56857;52.212;5.496;2023-07-31T10:28:11;100689.97;;;18.22;100.00
69630;BME280;56857;52.212;5.496;2023-07-31T10:30:38;100680.28;;;18.21;100.00
69630;BME280;56857;52.212;5.496;2023-07-31T10:33:05;100675.91;;;18.26;100.00
69630;BME280;56857;52.212;5.496;2023-07-31T10:35:31;100679.13;;;18.35;100.00
69630;BME280;56857;52.212;5.496;2023-07-31T10:38:09;100668.66;;;18.45;100.00
69630;BME280;56857;52.212;5.496;2023-07-31T10:40:35;100679.00;;;18.60;100.00
69630;BME280;56857;52.212;5.496;2023-07-31T10:43:00;100677.72;;;18.63;100.00
69630;BME280;56857;52.212;5.496;2023-07-31T10:45:33;100672.59;;;18.61;100.00
69630;BME280;56857;52.212;5.496;2023-07-31T10:48:01;100673.66;;;18.60;100.00
69630;BME280;56857;52.212;5.496;2023-07-31T10:50:26;100674.66;;;18.59;100.00
69630;BME280;56857;52.212;5.496;2023-07-31T10:52:54;100681.47;;;18.62;100.00
69630;BME280;56857;52.212;5.496;2023-07-31T10:58:09;100679.38;;;18.64;100.00
69630;BME280;56857;52.212;5.496;2023-07-31T11:00:44;100674.09;;;18.57;100.00
69630;BME280;56857;52.212;5.496;2023-07-31T11:03:12;100675.81;;;18.51;100.00
69630;BME280;56857;52.212;5.496;2023-07-31T11:05:49;100671.34;;;18.45;100.00
69630;BME280;56857;52.212;5.496;2023-07-31T11:08:26;100677.31;;;18.47;100.00
69630;BME280;56857;52.212;5.496;2023-07-31T11:13:27;100679.16;;;18.47;100.00
69630;BME280;56857;52.212;5.496;2023-07-31T11:15:52;100679.41;;;18.45;100.00
69630;BME280;56857;52.212;5.496;2023-07-31T11:18:18;100673.22;;;18.45;100.00
69630;BME280;56857;52.212;5.496;2023-07-31T11:20:43;100671.56;;;18.44;100.00
69630;BME280;56857;52.212;5.496;2023-07-31T11:23:10;100665.38;;;18.43;100.00
69630;BME280;56857;52.212;5.496;2023-07-31T11:25:37;100660.72;;;18.50;100.00
69630;BME280;56857;52.212;5.496;2023-07-31T11:28:08;100668.50;;;18.59;100.00
69630;BME280;56857;52.212;5.496;2023-07-31T11:30:34;100670.41;;;18.70;100.00
69630;BME280;56857;52.212;5.496;2023-07-31T11:33:04;100659.81;;;18.75;100.00
69630;BME280;56857;52.212;5.496;2023-07-31T11:35:34;100680.50;;;18.74;100.00
69630;BME280;56857;52.212;5.496;2023-07-31T11:38:01;100664.00;;;18.71;100.00
69630;BME280;56857;52.212;5.496;2023-07-31T11:40:27;100667.94;;;18.68;100.00
69630;BME280;56857;52.212;5.496;2023-07-31T11:42:52;100668.31;;;18.72;100.00
69630;BME280;56857;52.212;5.496;2023-07-31T11:45:17;100671.38;;;18.75;100.00
69630;BME280;56857;52.212;5.496;2023-07-31T11:47:43;100669.53;;;18.76;100.00
69630;BME280;56857;52.212;5.496;2023-07-31T11:50:10;100663.84;;;18.84;100.00
69630;BME280;56857;52.212;5.496;2023-07-31T11:52:40;100666.88;;;18.88;100.00
69630;BME280;56857;52.212;5.496;2023-07-31T11:55:07;100666.06;;;18.87;100.00
69630;BME280;56857;52.212;5.496;2023-07-31T11:57:33;100666.53;;;18.84;100.00
69630;BME280;56857;52.212;5.496;2023-07-31T11:59:59;100663.25;;;18.82;100.00
69630;BME280;56857;52.212;5.496;2023-07-31T12:02:24;100657.66;;;18.84;100.00
69630;BME280;56857;52.212;5.496;2023-07-31T12:04:50;100657.28;;;18.80;100.00
69630;BME280;56857;52.212;5.496;2023-07-31T12:07:15;100660.06;;;18.73;100.00
69630;BME280;56857;52.212;5.496;2023-07-31T12:09:54;100658.72;;;18.64;100.00
69630;BME280;56857;52.212;5.496;2023-07-31T12:12:21;100660.44;;;18.59;100.00
69630;BME280;56857;52.212;5.496;2023-07-31T12:14:46;100671.88;;;18.54;100.00
69630;BME280;56857;52.212;5.496;2023-07-31T12:17:11;100667.75;;;18.51;100.00
69630;BME280;56857;52.212;5.496;2023-07-31T12:19:37;100670.91;;;18.48;100.00
69630;BME280;56857;52.212;5.496;2023-07-31T12:22:02;100664.09;;;18.46;100.00
69630;BME280;56857;52.212;5.496;2023-07-31T12:24:27;100659.19;;;18.43;100.00
69630;BME280;56857;52.212;5.496;2023-07-31T12:26:53;100658.38;;;18.42;100.00
69630;BME280;56857;52.212;5.496;2023-07-31T12:29:18;100667.25;;;18.43;100.00
69630;BME280;56857;52.212;5.496;2023-07-31T12:31:43;100654.88;;;18.42;100.00
69630;BME280;56857;52.212;5.496;2023-07-31T12:34:16;100653.00;;;18.42;100.00
69630;BME280;56857;52.212;5.496;2023-07-31T12:36:42;100636.09;;;18.42;100.00
69630;BME280;56857;52.212;5.496;2023-07-31T12:39:07;100635.84;;;18.43;100.00
69630;BME280;56857;52.212;5.496;2023-07-31T12:41:33;100640.56;;;18.48;100.00
69630;BME280;56857;52.212;5.496;2023-07-31T12:43:58;100641.22;;;18.43;100.00